createdAt,value
2017-07-23T00:00:20.903Z,101059.95
2017-07-23T00:02:49.289Z,101062.08
2017-07-23T00:05:17.674Z,101050.77
2017-07-23T00:07:46.430Z,101036.42
2017-07-23T00:10:14.807Z,101024.05
2017-07-23T00:12:43.160Z,101014.39
2017-07-23T00:15:11.819Z,101017.83
2017-07-23T00:17:40.177Z,101015.02
2017-07-23T00:20:08.590Z,101006.97
2017-07-23T00:22:37.542Z,101000.17
2017-07-23T00:25:05.908Z,100999.69
2017-07-23T00:27:35.030Z,101000.33
2017-07-23T00:30:03.826Z,100991.97
2017-07-23T00:32:32.197Z,100989.87
2017-07-23T00:35:00.555Z,100992.73
2017-07-23T00:37:29.264Z,100988.69
2017-07-23T00:39:57.656Z,100977.78
2017-07-23T00:42:26.022Z,100970.81
2017-07-23T00:44:55.124Z,100971.66
2017-07-23T00:47:23.522Z,100971.92
2017-07-23T00:49:51.901Z,100972.80
2017-07-23T00:52:20.572Z,100958.53
2017-07-23T00:54:48.924Z,100965.42
2017-07-23T00:57:18.018Z,100969.52
2017-07-23T00:59:47.409Z,100968.86
2017-07-23T01:02:15.782Z,100962.31
2017-07-23T01:04:44.136Z,100958.34
2017-07-23T01:07:13.082Z,100948.01
2017-07-23T01:09:41.461Z,100946.09
2017-07-23T01:12:09.812Z,100950.44
2017-07-23T01:14:38.527Z,100945.44
2017-07-23T01:17:06.890Z,100940.16
2017-07-23T01:19:36.002Z,100938.36
2017-07-23T01:22:04.713Z,100936.10
2017-07-23T01:24:33.050Z,100930.34
2017-07-23T01:27:01.417Z,100929.31
2017-07-23T01:29:30.364Z,100940.83
2017-07-23T01:31:58.742Z,100937.66
2017-07-23T01:34:27.090Z,100937.63
2017-07-23T01:36:55.727Z,100932.16
2017-07-23T01:39:24.075Z,100929.87
2017-07-23T01:41:52.429Z,100922.98
2017-07-23T01:44:21.310Z,100914.45
2017-07-23T01:46:49.651Z,100919.80
2017-07-23T01:49:17.999Z,100918.39
2017-07-23T01:51:46.782Z,100914.63
2017-07-23T01:54:15.126Z,100910.35
2017-07-23T01:56:43.477Z,100901.66
2017-07-23T01:59:12.230Z,100886.09
2017-07-23T02:01:40.598Z,100888.84
2017-07-23T02:04:09.715Z,100881.45
2017-07-23T02:06:38.521Z,100884.86
2017-07-23T02:09:06.900Z,100884.58
2017-07-23T02:11:35.259Z,100875.03
2017-07-23T02:14:04.342Z,100866.89
2017-07-23T02:16:32.702Z,100863.33
2017-07-23T02:19:01.828Z,100852.55
2017-07-23T02:21:30.582Z,100857.47
2017-07-23T02:23:58.956Z,100845.90
2017-07-23T02:26:28.095Z,100846.52
2017-07-23T02:28:56.879Z,100854.07
2017-07-23T02:31:25.252Z,100857.23
2017-07-23T02:33:53.668Z,100858.14
2017-07-23T02:36:22.544Z,100868.78
2017-07-23T02:38:50.901Z,100881.48
2017-07-23T02:41:19.257Z,100873.64
2017-07-23T02:43:48.593Z,100865.34
2017-07-23T02:46:16.984Z,100860.56
2017-07-23T02:48:45.359Z,100862.39
2017-07-23T02:51:14.146Z,100862.51
2017-07-23T02:53:42.488Z,100858.10
2017-07-23T02:56:10.849Z,100854.02
2017-07-23T02:58:39.690Z,100856.57
2017-07-23T03:01:08.961Z,100853.97
2017-07-23T03:03:37.315Z,100864.17
2017-07-23T03:06:05.971Z,100853.38
2017-07-23T03:08:34.304Z,100856.12
2017-07-23T03:11:03.405Z,100856.06
2017-07-23T03:13:33.049Z,100856.28
2017-07-23T03:16:01.458Z,100857.02
2017-07-23T03:18:29.808Z,100848.72
2017-07-23T03:20:58.657Z,100852.71
2017-07-23T03:23:27.003Z,100854.98
2017-07-23T03:25:55.372Z,100850.37
2017-07-23T03:28:24.120Z,100848.65
2017-07-23T03:30:52.464Z,100845.80
2017-07-23T03:33:20.810Z,100837.80
2017-07-23T03:35:49.549Z,100828.60
2017-07-23T03:38:17.886Z,100826.67
2017-07-23T03:40:46.247Z,100824.73
2017-07-23T03:43:15.407Z,100828.16
2017-07-23T03:45:43.848Z,100830.05
2017-07-23T03:48:12.210Z,100824.14
2017-07-23T03:50:41.072Z,100826.31
2017-07-23T03:53:09.439Z,100827.01
2017-07-23T03:55:38.551Z,100822.08
2017-07-23T03:58:07.335Z,100819.48
2017-07-23T04:00:35.708Z,100820.08
2017-07-23T04:03:04.091Z,100818.58
2017-07-23T04:05:33.402Z,100845.24
2017-07-23T04:08:01.740Z,100854.55
2017-07-23T04:10:30.108Z,100859.02
2017-07-23T04:12:58.846Z,100856.61
2017-07-23T04:15:27.210Z,100858.98
2017-07-23T04:17:56.355Z,100857.76
2017-07-23T04:20:24.969Z,100859.42
2017-07-23T04:22:53.347Z,100856.48
2017-07-23T04:25:21.690Z,100857.36
2017-07-23T04:27:50.510Z,100839.23
2017-07-23T04:30:18.873Z,100843.01
2017-07-23T04:32:47.232Z,100847.41
2017-07-23T04:35:16.215Z,100834.77
2017-07-23T04:37:44.576Z,100829.16
2017-07-23T04:40:12.934Z,100824.31
2017-07-23T04:42:41.859Z,100825.64
2017-07-23T04:45:10.241Z,100819.71
2017-07-23T04:47:38.588Z,100818.14
2017-07-23T04:50:07.545Z,100833.52
2017-07-23T04:52:35.881Z,100831.52
2017-07-23T04:55:04.990Z,100834.31
2017-07-23T04:57:33.768Z,100848.73
2017-07-23T05:00:02.171Z,100834.97
2017-07-23T05:02:30.539Z,100830.76
2017-07-23T05:04:59.311Z,100839.16
2017-07-23T05:07:27.651Z,100838.32
2017-07-23T05:09:56.015Z,100843.22
2017-07-23T05:12:24.893Z,100856.05
2017-07-23T05:14:53.298Z,100843.11
2017-07-23T05:17:21.671Z,100840.47
2017-07-23T05:19:50.538Z,100839.55
2017-07-23T05:22:18.920Z,100840.16
2017-07-23T05:24:47.308Z,100838.37
2017-07-23T05:27:16.188Z,100840.74
2017-07-23T05:29:44.547Z,100843.30
2017-07-23T05:32:13.053Z,100834.65
2017-07-23T05:34:41.820Z,100834.31
2017-07-23T05:37:10.196Z,100824.45
2017-07-23T05:39:38.620Z,100829.58
2017-07-23T05:42:07.293Z,100821.84
2017-07-23T05:44:35.642Z,100810.06
2017-07-23T05:47:04.036Z,100815.34
2017-07-23T05:49:32.718Z,100818.03
2017-07-23T05:52:01.082Z,100828.00
2017-07-23T05:54:29.489Z,100836.18
2017-07-23T05:56:58.195Z,100841.95
2017-07-23T05:59:26.575Z,100842.14
2017-07-23T06:01:54.929Z,100841.06
2017-07-23T06:04:23.608Z,100834.81
2017-07-23T06:06:51.986Z,100826.27
2017-07-23T06:09:20.362Z,100827.97
2017-07-23T06:11:49.041Z,100828.67
2017-07-23T06:14:17.477Z,100832.03
2017-07-23T06:16:45.870Z,100836.41
2017-07-23T06:19:14.934Z,100836.81
2017-07-23T06:21:43.314Z,100842.05
2017-07-23T06:24:11.711Z,100846.95
2017-07-23T06:26:40.580Z,100847.50
2017-07-23T06:29:08.947Z,100852.25
2017-07-23T06:31:37.400Z,100853.85
2017-07-23T06:34:06.991Z,100860.56
2017-07-23T06:36:35.375Z,100853.38
2017-07-23T06:39:04.541Z,100858.08
2017-07-23T06:41:33.477Z,100861.63
2017-07-23T06:44:01.839Z,100862.29
2017-07-23T06:46:30.988Z,100863.56
2017-07-23T06:48:59.779Z,100864.89
2017-07-23T06:51:28.154Z,100864.08
2017-07-23T06:53:56.501Z,100863.88
2017-07-23T06:56:25.196Z,100868.75
2017-07-23T06:58:53.544Z,100872.58
2017-07-23T07:01:21.921Z,100876.48
2017-07-23T07:03:51.049Z,100876.08
2017-07-23T07:06:19.411Z,100876.15
2017-07-23T07:08:48.532Z,100882.91
2017-07-23T07:11:17.322Z,100885.78
2017-07-23T07:13:45.711Z,100889.16
2017-07-23T07:16:14.071Z,100892.38
2017-07-23T07:18:42.737Z,100884.61
2017-07-23T07:21:11.148Z,100881.77
2017-07-23T07:23:39.490Z,100885.20
2017-07-23T07:26:08.438Z,100899.22
2017-07-23T07:28:36.810Z,100900.75
2017-07-23T07:31:05.158Z,100900.14
2017-07-23T07:33:34.064Z,100898.77
2017-07-23T07:36:02.408Z,100893.50
2017-07-23T07:38:30.763Z,100900.11
2017-07-23T07:40:59.500Z,100892.80
2017-07-23T07:43:27.871Z,100887.48
2017-07-23T07:45:57.017Z,100898.84
2017-07-23T07:48:25.987Z,100890.73
2017-07-23T07:50:54.350Z,100893.44
2017-07-23T07:53:22.698Z,100899.48
2017-07-23T07:55:51.441Z,100894.10
2017-07-23T07:58:19.825Z,100900.45
2017-07-23T08:00:48.246Z,100910.77
2017-07-23T08:03:16.913Z,100907.92
2017-07-23T08:05:45.327Z,100918.02
2017-07-23T08:08:13.686Z,100917.05
2017-07-23T08:10:42.744Z,100907.53
2017-07-23T08:13:11.110Z,100915.25
2017-07-23T08:15:39.459Z,100921.03
2017-07-23T08:18:08.124Z,100924.52
2017-07-23T08:20:36.478Z,100930.23
2017-07-23T08:23:04.827Z,100929.61
2017-07-23T08:25:33.461Z,100935.63
2017-07-23T08:28:01.875Z,100931.58
2017-07-23T08:30:30.242Z,100934.16
2017-07-23T08:32:59.085Z,100941.22
2017-07-23T08:35:27.429Z,100947.41
2017-07-23T08:37:55.767Z,100955.61
2017-07-23T08:40:24.706Z,100956.07
2017-07-23T08:42:53.067Z,100959.71
2017-07-23T08:45:22.194Z,100956.53
2017-07-23T08:47:50.882Z,100958.59
2017-07-23T08:50:19.340Z,100963.50
2017-07-23T08:52:47.780Z,100956.67
2017-07-23T08:55:16.649Z,100964.16
2017-07-23T08:57:45.022Z,100954.36
2017-07-23T09:00:13.434Z,100950.83
2017-07-23T09:02:42.274Z,100965.17
2017-07-23T09:05:10.622Z,100966.02
2017-07-23T09:07:39.742Z,100963.19
2017-07-23T09:10:09.143Z,100967.56
2017-07-23T09:12:37.473Z,100957.41
2017-07-23T09:15:05.809Z,100948.73
2017-07-23T09:17:34.682Z,100947.89
2017-07-23T09:20:03.049Z,100948.77
2017-07-23T09:22:31.414Z,100956.75
2017-07-23T09:25:00.042Z,100949.65
2017-07-23T09:27:28.395Z,100949.23
2017-07-23T09:29:57.505Z,100958.69
2017-07-23T09:32:27.343Z,100963.17
2017-07-23T09:34:55.771Z,100962.16
2017-07-23T09:37:24.147Z,100965.26
2017-07-23T09:39:52.995Z,100968.09
2017-07-23T09:42:21.351Z,100964.28
2017-07-23T09:44:49.728Z,100962.87
2017-07-23T09:47:18.620Z,100960.62
2017-07-23T09:49:46.997Z,100970.49
2017-07-23T09:52:15.369Z,100963.48
2017-07-23T09:54:44.004Z,100976.95
2017-07-23T09:57:12.366Z,100973.66
2017-07-23T09:59:40.715Z,100974.43
2017-07-23T10:02:10.234Z,100974.90
2017-07-23T10:04:38.631Z,100968.88
2017-07-23T10:07:06.990Z,100972.58
2017-07-23T10:09:35.617Z,100981.53
2017-07-23T10:12:03.964Z,100976.11
2017-07-23T10:14:32.342Z,100974.90
2017-07-23T10:17:01.243Z,100981.19
2017-07-23T10:19:29.633Z,100983.31
2017-07-23T10:21:58.000Z,100987.83
2017-07-23T10:24:27.087Z,100985.84
2017-07-23T10:26:55.437Z,100980.44
2017-07-23T10:29:24.614Z,100984.09
2017-07-23T10:31:53.463Z,100986.70
2017-07-23T10:34:21.895Z,100986.33
2017-07-23T10:36:50.268Z,100993.16
2017-07-23T10:39:19.213Z,100996.00
2017-07-23T10:41:47.581Z,101004.08
2017-07-23T10:44:15.931Z,101015.16
2017-07-23T10:46:45.066Z,101013.86
2017-07-23T10:49:13.401Z,101011.48
2017-07-23T10:51:42.563Z,101013.48
2017-07-23T10:54:11.351Z,101014.76
2017-07-23T10:56:39.738Z,101014.57
2017-07-23T10:59:08.103Z,101016.13
2017-07-23T11:04:04.457Z,101026.05
2017-07-23T11:06:32.855Z,101026.86
2017-07-23T11:09:01.824Z,101024.77
2017-07-23T11:11:30.184Z,101021.87
2017-07-23T11:13:58.552Z,101029.10
2017-07-23T11:16:27.563Z,101026.02
2017-07-23T11:18:55.902Z,101027.30
2017-07-23T11:21:24.279Z,101024.89
2017-07-23T11:23:52.903Z,101024.88
2017-07-23T11:26:21.253Z,101021.84
2017-07-23T11:28:49.590Z,101018.10
2017-07-23T11:31:18.483Z,101025.97
2017-07-23T11:33:46.837Z,101028.95
2017-07-23T11:36:15.191Z,101035.64
2017-07-23T11:38:44.632Z,101026.34
2017-07-23T11:41:13.007Z,101028.03
2017-07-23T11:43:41.402Z,101022.35
2017-07-23T11:46:10.066Z,101025.10
2017-07-23T11:48:38.438Z,101022.03
2017-07-23T11:51:06.796Z,101019.84
2017-07-23T11:53:35.753Z,101033.74
2017-07-23T11:56:04.144Z,101033.10
2017-07-23T11:58:32.527Z,101040.76
2017-07-23T12:01:01.358Z,101042.08
2017-07-23T12:03:29.762Z,101041.01
2017-07-23T12:05:58.146Z,101036.19
2017-07-23T12:08:27.004Z,101040.44
2017-07-23T12:10:55.368Z,101050.27
2017-07-23T12:13:24.508Z,101049.02
2017-07-23T12:15:53.363Z,101050.22
2017-07-23T12:18:22.552Z,101035.02
2017-07-23T12:20:50.924Z,101040.71
2017-07-23T12:23:19.738Z,101040.39
2017-07-23T12:25:48.135Z,101039.77
2017-07-23T12:28:16.480Z,101044.28
2017-07-23T12:30:45.407Z,101053.73
2017-07-23T12:33:13.793Z,101042.02
2017-07-23T12:35:42.134Z,101039.60
2017-07-23T12:38:10.938Z,101037.78
2017-07-23T12:40:39.312Z,101034.69
2017-07-23T12:43:07.665Z,101042.30
2017-07-23T12:45:36.502Z,101045.03
2017-07-23T12:48:04.881Z,101044.88
2017-07-23T12:50:33.248Z,101042.54
2017-07-23T12:53:01.884Z,101044.44
2017-07-23T12:55:30.238Z,101039.12
2017-07-23T12:57:58.635Z,101043.32
2017-07-23T13:00:27.600Z,101048.06
2017-07-23T13:02:55.989Z,101036.13
2017-07-23T13:05:24.339Z,101044.02
2017-07-23T13:07:53.251Z,101039.45
2017-07-23T13:10:21.583Z,101045.52
2017-07-23T13:12:50.734Z,101045.47
2017-07-23T13:15:19.506Z,101037.29
2017-07-23T13:17:47.902Z,101046.91
2017-07-23T13:20:16.263Z,101040.14
2017-07-23T13:22:45.577Z,101041.58
2017-07-23T13:25:13.932Z,101043.19
2017-07-23T13:27:42.326Z,101039.09
2017-07-23T13:30:10.982Z,101045.73
2017-07-23T13:32:39.779Z,101045.53
2017-07-23T13:35:08.903Z,101046.30
2017-07-23T13:37:37.700Z,101046.20
2017-07-23T13:40:06.038Z,101046.39
2017-07-23T13:42:35.153Z,101047.21
2017-07-23T13:45:04.212Z,101034.02
2017-07-23T13:47:32.590Z,101039.98
2017-07-23T13:50:00.976Z,101041.70
2017-07-23T13:52:29.629Z,101041.59
2017-07-23T13:54:57.992Z,101034.19
2017-07-23T13:57:26.345Z,101047.89
2017-07-23T13:59:55.230Z,101043.45
2017-07-23T14:02:23.616Z,101037.59
2017-07-23T14:04:52.008Z,101039.03
2017-07-23T14:07:20.953Z,101035.62
2017-07-23T14:09:49.358Z,101042.04
2017-07-23T14:12:17.772Z,101038.42
2017-07-23T14:14:46.488Z,101046.98
2017-07-23T14:17:14.880Z,101035.27
2017-07-23T14:19:43.240Z,101035.52
2017-07-23T14:22:11.999Z,101028.39
2017-07-23T14:24:40.378Z,101036.63
2017-07-23T14:27:08.732Z,101024.83
2017-07-23T14:29:37.855Z,101027.81
2017-07-23T14:32:06.207Z,101030.17
2017-07-23T14:34:35.358Z,101036.94
2017-07-23T14:37:04.122Z,101026.56
2017-07-23T14:39:32.468Z,101033.20
2017-07-23T14:42:01.628Z,101030.30
2017-07-23T14:44:30.249Z,101026.03
2017-07-23T14:46:59.363Z,101030.55
2017-07-23T14:49:27.678Z,101028.02
2017-07-23T14:51:56.462Z,101017.79
2017-07-23T14:54:24.833Z,101013.71
2017-07-23T14:56:53.215Z,101013.78
2017-07-23T14:59:21.875Z,101021.06
2017-07-23T15:01:50.290Z,101021.14
2017-07-23T15:04:18.635Z,101026.64
2017-07-23T15:06:47.507Z,101026.50
2017-07-23T15:09:15.876Z,101023.37
2017-07-23T15:11:45.050Z,101029.55
2017-07-23T15:14:14.000Z,101022.30
2017-07-23T15:16:42.353Z,101024.03
2017-07-23T15:19:11.505Z,101013.83
2017-07-23T15:21:40.294Z,101022.12
2017-07-23T15:24:08.672Z,101027.16
2017-07-23T15:26:37.017Z,101026.20
2017-07-23T15:29:05.693Z,101026.28
2017-07-23T15:31:34.049Z,101030.52
2017-07-23T15:34:02.407Z,101027.38
2017-07-23T15:36:31.100Z,101024.06
2017-07-23T15:38:59.461Z,101012.83
2017-07-23T15:41:27.942Z,101014.31
2017-07-23T15:43:56.599Z,101023.36
2017-07-23T15:46:24.946Z,101019.84
2017-07-23T15:48:53.351Z,101026.83
2017-07-23T15:51:22.058Z,101030.29
2017-07-23T15:53:50.448Z,101034.47
2017-07-23T15:56:18.788Z,101024.39
2017-07-23T15:58:47.819Z,101030.94
2017-07-23T16:01:16.198Z,101034.23
2017-07-23T16:03:44.609Z,101030.41
2017-07-23T16:06:13.275Z,101023.62
2017-07-23T16:08:41.691Z,101033.28
2017-07-23T16:11:10.062Z,101035.62
2017-07-23T16:13:38.820Z,101031.98
2017-07-23T16:16:07.183Z,101032.53
2017-07-23T16:18:35.553Z,101037.45
2017-07-23T16:21:04.440Z,101041.81
2017-07-23T16:23:32.784Z,101044.75
2017-07-23T16:26:01.906Z,101032.69
2017-07-23T16:28:30.550Z,101038.50
2017-07-23T16:30:58.917Z,101040.66
2017-07-23T16:33:27.276Z,101038.20
2017-07-23T16:35:55.964Z,101038.84
2017-07-23T16:38:24.349Z,101035.78
2017-07-23T16:40:52.742Z,101032.87
2017-07-23T16:43:21.923Z,101035.04
2017-07-23T16:45:50.294Z,101037.24
2017-07-23T16:48:18.631Z,101034.16
2017-07-23T16:50:47.450Z,101031.48
2017-07-23T16:53:15.846Z,101031.02
2017-07-23T16:55:44.222Z,101037.36
2017-07-23T16:58:12.886Z,101029.87
2017-07-23T17:00:41.245Z,101035.08
2017-07-23T17:03:10.385Z,101035.62
2017-07-23T17:05:39.596Z,101031.02
2017-07-23T17:08:07.960Z,101034.02
2017-07-23T17:10:36.375Z,101028.45
2017-07-23T17:13:05.026Z,101037.53
2017-07-23T17:15:33.423Z,101030.88
2017-07-23T17:18:01.822Z,101033.30
2017-07-23T17:20:30.694Z,101032.17
2017-07-23T17:22:59.095Z,101039.12
2017-07-23T17:25:27.471Z,101038.66
2017-07-23T17:27:56.735Z,101041.23
2017-07-23T17:30:25.126Z,101044.72
2017-07-23T17:32:53.516Z,101051.52
2017-07-23T17:35:22.186Z,101054.00
2017-07-23T17:37:50.574Z,101054.55
2017-07-23T17:40:18.935Z,101058.28
2017-07-23T17:42:47.741Z,101060.70
2017-07-23T17:45:16.127Z,101064.14
2017-07-23T17:47:44.504Z,101067.81
2017-07-23T17:50:13.696Z,101070.66
2017-07-23T17:52:42.118Z,101064.16
2017-07-23T17:55:10.512Z,101063.34
2017-07-23T17:57:39.280Z,101073.18
2017-07-23T18:00:07.687Z,101071.15
2017-07-23T18:02:36.037Z,101073.87
2017-07-23T18:05:04.953Z,101072.48
2017-07-23T18:07:33.313Z,101064.63
2017-07-23T18:10:01.684Z,101066.48
2017-07-23T18:12:30.653Z,101066.95
2017-07-23T18:14:59.053Z,101070.52
2017-07-23T18:17:27.504Z,101066.08
2017-07-23T18:19:56.147Z,101065.61
2017-07-23T18:22:24.556Z,101063.29
2017-07-23T18:24:52.927Z,101068.20
2017-07-23T18:27:21.749Z,101065.48
2017-07-23T18:29:50.130Z,101065.98
2017-07-23T18:32:18.482Z,101067.00
2017-07-23T18:34:47.334Z,101061.28
2017-07-23T18:37:15.736Z,101062.61
2017-07-23T18:39:44.928Z,101068.89
2017-07-23T18:42:13.888Z,101071.61
2017-07-23T18:44:42.226Z,101071.59
2017-07-23T18:47:10.610Z,101073.47
2017-07-23T18:49:39.435Z,101072.33
2017-07-23T18:52:07.848Z,101076.67
2017-07-23T18:54:37.155Z,101077.36
2017-07-23T18:57:06.366Z,101081.56
2017-07-23T18:59:34.763Z,101081.33
2017-07-23T19:02:03.169Z,101077.06
2017-07-23T19:04:31.865Z,101082.00
2017-07-23T19:07:00.260Z,101081.89
2017-07-23T19:09:28.627Z,101081.77
2017-07-23T19:11:57.261Z,101077.64
2017-07-23T19:14:25.652Z,101081.83
2017-07-23T19:16:54.081Z,101081.95
2017-07-23T19:19:23.134Z,101090.72
2017-07-23T19:21:51.510Z,101084.67
2017-07-23T19:24:19.851Z,101084.11
2017-07-23T19:26:48.785Z,101081.72
2017-07-23T19:29:17.207Z,101084.64
2017-07-23T19:31:45.607Z,101087.43
2017-07-23T19:34:14.528Z,101087.66
2017-07-23T19:36:42.924Z,101091.91
2017-07-23T19:39:11.313Z,101086.61
2017-07-23T19:41:40.487Z,101090.82
2017-07-23T19:44:08.894Z,101093.56
2017-07-23T19:46:37.315Z,101100.11
2017-07-23T19:49:06.356Z,101102.83
2017-07-23T19:51:34.796Z,101098.36
2017-07-23T19:54:03.214Z,101098.77
2017-07-23T19:56:31.868Z,101093.65
2017-07-23T19:59:00.262Z,101102.50
2017-07-23T20:01:28.859Z,101097.69
2017-07-23T20:03:57.852Z,101092.11
2017-07-23T20:06:26.283Z,101096.72
2017-07-23T20:08:54.686Z,101097.87
2017-07-23T20:11:23.587Z,101102.67
2017-07-23T20:13:52.009Z,101101.73
2017-07-23T20:16:20.421Z,101108.89
2017-07-23T20:18:49.086Z,101104.41
2017-07-23T20:21:17.484Z,101104.91
2017-07-23T20:23:46.627Z,101104.37
2017-07-23T20:26:15.620Z,101106.81
2017-07-23T20:28:43.970Z,101100.80
2017-07-23T20:31:12.364Z,101102.68
2017-07-23T20:33:41.048Z,101101.69
2017-07-23T20:36:09.470Z,101105.97
2017-07-23T20:38:37.904Z,101108.95
2017-07-23T20:41:06.637Z,101107.23
2017-07-23T20:43:35.031Z,101111.70
2017-07-23T20:46:03.462Z,101106.45
2017-07-23T20:48:32.498Z,101111.16
2017-07-23T20:51:00.938Z,101115.34
2017-07-23T20:53:29.377Z,101109.80
2017-07-23T20:55:58.045Z,101113.86
2017-07-23T20:58:26.474Z,101109.48
2017-07-23T21:00:54.927Z,101104.98
2017-07-23T21:03:23.604Z,101107.58
2017-07-23T21:05:52.041Z,101104.70
2017-07-23T21:08:20.437Z,101105.49
2017-07-23T21:10:49.274Z,101098.84
2017-07-23T21:13:17.686Z,101105.00
2017-07-23T21:15:46.065Z,101107.08
2017-07-23T21:18:14.741Z,101104.17
2017-07-23T21:20:43.139Z,101101.22
2017-07-23T21:23:11.503Z,101097.79
2017-07-23T21:25:40.469Z,101104.09
2017-07-23T21:28:08.909Z,101106.95
2017-07-23T21:30:37.317Z,101110.04
2017-07-23T21:33:06.263Z,101107.28
2017-07-23T21:35:34.654Z,101101.59
2017-07-23T21:38:03.100Z,101114.21
2017-07-23T21:40:31.782Z,101104.16
2017-07-23T21:43:00.179Z,101103.36
2017-07-23T21:45:28.590Z,101106.61
2017-07-23T21:47:57.307Z,101105.05
2017-07-23T21:50:25.767Z,101099.98
2017-07-23T21:52:54.154Z,101109.63
2017-07-23T21:55:22.991Z,101107.41
2017-07-23T21:57:51.378Z,101103.39
2017-07-23T22:00:19.748Z,101105.72
2017-07-23T22:02:48.396Z,101097.41
2017-07-23T22:05:16.796Z,101105.59
2017-07-23T22:07:45.196Z,101106.14
2017-07-23T22:10:13.974Z,101108.16
2017-07-23T22:12:42.390Z,101107.33
2017-07-23T22:15:10.784Z,101103.31
2017-07-23T22:17:39.841Z,101096.64
2017-07-23T22:20:08.187Z,101099.50
2017-07-23T22:22:36.610Z,101092.86
2017-07-23T22:25:05.347Z,101093.38
2017-07-23T22:27:33.733Z,101101.93
2017-07-23T22:30:02.130Z,101092.64
2017-07-23T22:32:30.994Z,101095.50
2017-07-23T22:34:59.571Z,101098.35
2017-07-23T22:37:27.977Z,101090.33
2017-07-23T22:39:57.177Z,101092.72
2017-07-23T22:42:26.453Z,101085.86
2017-07-23T22:44:54.872Z,101083.11
2017-07-23T22:47:23.523Z,101080.69
2017-07-23T22:49:51.976Z,101080.40
2017-07-23T22:52:20.404Z,101077.20
2017-07-23T22:54:49.796Z,101079.73
2017-07-23T22:57:18.162Z,101080.08
2017-07-23T22:59:46.528Z,101071.92
2017-07-23T23:02:15.647Z,101070.44
2017-07-23T23:04:44.091Z,101076.77
2017-07-23T23:07:12.474Z,101076.78
2017-07-23T23:09:41.530Z,101073.61
2017-07-23T23:12:09.916Z,101070.97
2017-07-23T23:14:38.333Z,101066.84
2017-07-23T23:17:07.077Z,101062.45
2017-07-23T23:19:35.441Z,101066.23
2017-07-23T23:22:03.816Z,101060.20
2017-07-23T23:24:32.788Z,101059.44
2017-07-23T23:27:01.201Z,101064.86
2017-07-23T23:29:30.332Z,101057.77
2017-07-23T23:31:59.334Z,101055.45
2017-07-23T23:34:27.706Z,101057.77
2017-07-23T23:36:56.769Z,101051.75
2017-07-23T23:39:25.688Z,101052.67
2017-07-23T23:41:54.061Z,101052.25
2017-07-23T23:44:22.553Z,101048.78
2017-07-23T23:46:51.451Z,101052.38
2017-07-23T23:49:19.895Z,101045.61
2017-07-23T23:51:48.326Z,101046.70
2017-07-23T23:54:17.034Z,101038.17
2017-07-23T23:56:45.436Z,101032.36
2017-07-23T23:59:13.867Z,101032.80
